Terminal Aerodrome Forecast
Issued by NWS

Home | Current Version | Previous Version | Text Only | Print | Product List | Glossary On
Versions: 1 2 3 4 5 6 7 8 9 10 11 12 13 14 15 16 17 18
000
FTUS41 KBOX 191120
TAFHYA
TAF
KHYA 191120Z 1912/2012 21005KT 5SM BR OVC008
     FM191400 22007KT P6SM BKN010
     FM191600 22006KT P6SM BKN100
     FM192100 22008KT P6SM SKC
     FM200800 27004KT P6SM FEW250=

USA.gov is the U.S. government's official web portal to all federal, state and local government web resources and services.